Date,TemperatureHighF,TemperatureAvgF,TemperatureLowF,DewpointHighF,DewpointAvgF,DewpointLowF,HumidityHigh,HumidityAvg,HumidityLow,PressureMaxIn,PressureMinIn,WindSpeedMaxMPH,WindSpeedAvgMPH,GustSpeedMaxMPH,PrecipitationSumIn
2013-2-1,47,20,42,-100,-100,-100,0,0,100,0.00,40.00,11,-16,12,0.00
2013-2-2,41,19,36,-100,-100,-100,0,0,100,0.00,40.00,11,-2,13,0.00
2013-2-3,44,20,40,-100,-100,-100,0,0,100,0.00,40.00,14,2,16,0.00
2013-2-4,47,21,43,-100,-100,-100,0,0,100,0.00,40.00,20,-18,23,0.00
2013-2-5,48,22,43,-100,-100,-100,0,0,100,0.00,40.00,22,5,29,0.00
2013-2-6,47,22,44,-100,-100,-100,0,0,100,0.00,40.00,21,5,29,0.00
2013-2-7,48,21,37,-100,-100,-100,0,0,100,0.00,40.00,28,3,41,0.00
2013-2-8,42,17,34,-100,-100,-100,0,0,100,0.00,40.00,8,-18,9,0.00
2013-2-9,42,19,39,-100,-100,-100,0,0,100,30.27,30.27,6,-24,8,0.00
2013-2-10,43,19,35,-100,-100,-100,0,0,100,0.00,40.00,8,-3,10,0.00
2013-2-11,43,19,40,-100,-100,-100,0,0,100,0.00,40.00,12,-14,17,0.00
2013-2-12,48,19,43,-100,-100,-100,0,0,100,0.00,40.00,26,2,29,0.00
2013-2-13,48,20,44,-100,-100,-100,0,0,100,0.00,40.00,23,10,27,0.00
2013-2-14,45,21,41,-100,-100,-100,0,0,100,0.00,40.00,12,-14,15,0.00
2013-2-15,46,20,41,-100,-100,-100,0,0,100,0.00,40.00,13,1,15,0.00
2013-2-16,47,20,43,-100,-100,-100,0,0,100,0.00,40.00,20,-8,23,0.00
2013-2-17,45,19,40,-100,-100,-100,0,0,100,0.00,40.00,20,8,23,0.00
2013-2-18,44,18,39,-100,-100,-100,0,0,100,0.00,40.00,16,2,20,0.00
2013-2-19,44,18,37,-100,-100,-100,0,0,100,0.00,40.00,18,4,25,0.00
2013-2-20,42,16,36,-100,-100,-100,0,0,100,0.00,40.00,12,1,17,0.00
2013-2-21,44,21,37,-100,-100,-100,0,0,100,0.00,40.00,27,4,31,0.00
2013-2-22,46,19,41,-100,-100,-100,0,0,100,29.90,29.87,36,16,44,0.00
2013-2-23,45,19,41,-100,-100,-100,0,0,100,0.00,40.00,21,5,24,0.00
2013-2-24,46,19,41,-100,-100,-100,0,0,100,0.00,40.00,30,19,38,0.00
2013-2-25,46,20,43,-100,-100,-100,0,0,100,0.00,40.00,38,-19,47,0.00
2013-2-26,45,19,41,-100,-100,-100,0,0,100,30.17,30.14,22,6,30,0.00
2013-2-27,45,25,40,-100,-100,-100,0,0,100,30.29,30.17,20,-13,26,0.00
2013-2-28,49,18,39,-100,-100,-100,0,0,100,0.00,40.00,20,-2,24,0.00